sensor_id;sensor_type;location;lat;lon;timestamp;temperature;humidity
6752;DHT22;3413;47.680;9.166;2023-07-13T00:04:39;23.30;87.10
6752;DHT22;3413;47.680;9.166;2023-07-13T00:09:41;23.30;87.20
6752;DHT22;3413;47.680;9.166;2023-07-13T00:14:43;23.30;87.20
6752;DHT22;3413;47.680;9.166;2023-07-13T00:19:45;23.40;87.30
6752;DHT22;3413;47.680;9.166;2023-07-13T00:24:47;23.40;87.40
6752;DHT22;3413;47.680;9.166;2023-07-13T00:29:49;23.40;87.30
6752;DHT22;3413;47.680;9.166;2023-07-13T00:34:52;23.30;87.30
6752;DHT22;3413;47.680;9.166;2023-07-13T00:39:54;23.20;87.30
6752;DHT22;3413;47.680;9.166;2023-07-13T00:50:22;23.30;87.30
6752;DHT22;3413;47.680;9.166;2023-07-13T00:55:27;23.40;87.40
6752;DHT22;3413;47.680;9.166;2023-07-13T01:00:29;23.40;87.30
6752;DHT22;3413;47.680;9.166;2023-07-13T01:05:33;23.40;87.40
6752;DHT22;3413;47.680;9.166;2023-07-13T01:10:36;23.40;87.40
6752;DHT22;3413;47.680;9.166;2023-07-13T01:15:43;23.30;87.40
6752;DHT22;3413;47.680;9.166;2023-07-13T01:21:00;23.30;87.60
6752;DHT22;3413;47.680;9.166;2023-07-13T01:26:02;23.40;87.70
6752;DHT22;3413;47.680;9.166;2023-07-13T01:31:04;23.40;87.50
6752;DHT22;3413;47.680;9.166;2023-07-13T01:36:08;23.40;87.30
6752;DHT22;3413;47.680;9.166;2023-07-13T01:41:12;23.20;87.50
6752;DHT22;3413;47.680;9.166;2023-07-13T01:46:14;23.20;87.60
6752;DHT22;3413;47.680;9.166;2023-07-13T01:51:20;23.20;87.50
6752;DHT22;3413;47.680;9.166;2023-07-13T01:56:22;23.10;87.50
6752;DHT22;3413;47.680;9.166;2023-07-13T02:01:25;23.10;87.70
6752;DHT22;3413;47.680;9.166;2023-07-13T02:06:28;23.10;87.70
6752;DHT22;3413;47.680;9.166;2023-07-13T02:11:32;23.20;87.70
6752;DHT22;3413;47.680;9.166;2023-07-13T02:16:35;23.30;87.70
6752;DHT22;3413;47.680;9.166;2023-07-13T02:21:37;23.30;87.60
6752;DHT22;3413;47.680;9.166;2023-07-13T02:26:38;23.30;87.60
6752;DHT22;3413;47.680;9.166;2023-07-13T02:31:40;23.30;87.50
6752;DHT22;3413;47.680;9.166;2023-07-13T02:36:43;23.30;87.60
6752;DHT22;3413;47.680;9.166;2023-07-13T02:41:45;23.20;87.60
6752;DHT22;3413;47.680;9.166;2023-07-13T02:46:48;23.20;87.60
6752;DHT22;3413;47.680;9.166;2023-07-13T02:51:51;23.20;87.60
6752;DHT22;3413;47.680;9.166;2023-07-13T02:56:53;23.10;87.60
6752;DHT22;3413;47.680;9.166;2023-07-13T03:01:55;23.10;87.70
6752;DHT22;3413;47.680;9.166;2023-07-13T03:06:58;23.10;87.80
6752;DHT22;3413;47.680;9.166;2023-07-13T03:12:08;23.10;87.70
6752;DHT22;3413;47.680;9.166;2023-07-13T03:17:11;23.20;87.80
6752;DHT22;3413;47.680;9.166;2023-07-13T03:22:17;23.20;87.90
6752;DHT22;3413;47.680;9.166;2023-07-13T03:27:19;23.20;87.90
6752;DHT22;3413;47.680;9.166;2023-07-13T03:32:23;23.20;88.00
6752;DHT22;3413;47.680;9.166;2023-07-13T03:37:25;23.20;88.00
6752;DHT22;3413;47.680;9.166;2023-07-13T03:42:27;23.30;88.00
6752;DHT22;3413;47.680;9.166;2023-07-13T03:47:29;23.30;88.10
6752;DHT22;3413;47.680;9.166;2023-07-13T03:52:31;23.40;88.00
6752;DHT22;3413;47.680;9.166;2023-07-13T03:57:33;23.30;88.10
6752;DHT22;3413;47.680;9.166;2023-07-13T04:02:40;23.30;88.20
6752;DHT22;3413;47.680;9.166;2023-07-13T04:07:43;23.40;88.20
6752;DHT22;3413;47.680;9.166;2023-07-13T04:12:45;23.40;88.20
6752;DHT22;3413;47.680;9.166;2023-07-13T04:17:47;23.40;88.30
6752;DHT22;3413;47.680;9.166;2023-07-13T04:22:49;23.50;88.40
6752;DHT22;3413;47.680;9.166;2023-07-13T04:27:52;23.50;88.40
6752;DHT22;3413;47.680;9.166;2023-07-13T04:32:54;23.50;88.50
6752;DHT22;3413;47.680;9.166;2023-07-13T04:37:56;23.50;88.50
6752;DHT22;3413;47.680;9.166;2023-07-13T04:42:57;23.50;88.70
6752;DHT22;3413;47.680;9.166;2023-07-13T04:47:59;23.40;88.70
6752;DHT22;3413;47.680;9.166;2023-07-13T04:53:01;23.50;88.90
6752;DHT22;3413;47.680;9.166;2023-07-13T04:58:04;23.40;88.80
6752;DHT22;3413;47.680;9.166;2023-07-13T05:03:06;23.40;88.90
6752;DHT22;3413;47.680;9.166;2023-07-13T05:08:09;23.40;89.00
6752;DHT22;3413;47.680;9.166;2023-07-13T05:13:10;23.40;89.10
6752;DHT22;3413;47.680;9.166;2023-07-13T05:18:12;23.40;89.10
6752;DHT22;3413;47.680;9.166;2023-07-13T05:23:14;23.30;89.00
6752;DHT22;3413;47.680;9.166;2023-07-13T05:28:16;23.40;89.10
6752;DHT22;3413;47.680;9.166;2023-07-13T05:33:18;23.40;89.00
6752;DHT22;3413;47.680;9.166;2023-07-13T05:38:21;23.50;89.10
6752;DHT22;3413;47.680;9.166;2023-07-13T05:43:23;23.50;89.00
6752;DHT22;3413;47.680;9.166;2023-07-13T05:48:25;23.50;89.20
6752;DHT22;3413;47.680;9.166;2023-07-13T05:53:27;23.60;89.20
6752;DHT22;3413;47.680;9.166;2023-07-13T05:58:29;23.70;89.30
6752;DHT22;3413;47.680;9.166;2023-07-13T06:03:31;23.70;89.40
6752;DHT22;3413;47.680;9.166;2023-07-13T06:08:33;23.70;89.40
6752;DHT22;3413;47.680;9.166;2023-07-13T06:13:35;23.80;89.60
6752;DHT22;3413;47.680;9.166;2023-07-13T06:18:38;23.90;89.50
6752;DHT22;3413;47.680;9.166;2023-07-13T06:23:40;23.90;89.50
6752;DHT22;3413;47.680;9.166;2023-07-13T06:28:43;23.90;89.50
6752;DHT22;3413;47.680;9.166;2023-07-13T06:33:44;23.90;89.50
6752;DHT22;3413;47.680;9.166;2023-07-13T06:38:46;23.90;89.10
6752;DHT22;3413;47.680;9.166;2023-07-13T06:43:48;23.80;88.90
6752;DHT22;3413;47.680;9.166;2023-07-13T06:48:50;23.80;88.90
6752;DHT22;3413;47.680;9.166;2023-07-13T06:53:52;23.70;89.00
6752;DHT22;3413;47.680;9.166;2023-07-13T06:58:54;23.60;89.00
6752;DHT22;3413;47.680;9.166;2023-07-13T07:03:56;23.50;88.90
6752;DHT22;3413;47.680;9.166;2023-07-13T07:08:58;23.40;88.60
6752;DHT22;3413;47.680;9.166;2023-07-13T07:14:00;23.20;88.40
6752;DHT22;3413;47.680;9.166;2023-07-13T07:19:02;23.20;88.10
6752;DHT22;3413;47.680;9.166;2023-07-13T07:24:04;23.10;87.90
6752;DHT22;3413;47.680;9.166;2023-07-13T07:29:06;22.70;87.60
6752;DHT22;3413;47.680;9.166;2023-07-13T07:34:11;22.40;87.80
6752;DHT22;3413;47.680;9.166;2023-07-13T07:39:13;22.20;87.90
6752;DHT22;3413;47.680;9.166;2023-07-13T07:44:15;22.20;88.00
6752;DHT22;3413;47.680;9.166;2023-07-13T07:49:17;22.30;87.70
6752;DHT22;3413;47.680;9.166;2023-07-13T07:54:19;22.40;87.80
6752;DHT22;3413;47.680;9.166;2023-07-13T07:59:41;22.60;88.00
6752;DHT22;3413;47.680;9.166;2023-07-13T08:04:46;22.60;88.00
6752;DHT22;3413;47.680;9.166;2023-07-13T08:09:54;22.70;87.80
6752;DHT22;3413;47.680;9.166;2023-07-13T08:14:55;22.80;87.80
6752;DHT22;3413;47.680;9.166;2023-07-13T08:20:02;22.90;88.00
6752;DHT22;3413;47.680;9.166;2023-07-13T08:25:04;23.00;88.20
6752;DHT22;3413;47.680;9.166;2023-07-13T08:30:06;23.00;88.30
6752;DHT22;3413;47.680;9.166;2023-07-13T08:35:09;23.10;88.40
6752;DHT22;3413;47.680;9.166;2023-07-13T08:40:12;23.20;88.60
6752;DHT22;3413;47.680;9.166;2023-07-13T08:45:38;23.30;88.70
6752;DHT22;3413;47.680;9.166;2023-07-13T08:50:55;23.40;88.90
6752;DHT22;3413;47.680;9.166;2023-07-13T08:56:20;23.60;89.00
6752;DHT22;3413;47.680;9.166;2023-07-13T09:01:46;23.80;89.10
6752;DHT22;3413;47.680;9.166;2023-07-13T09:07:03;24.10;89.20
6752;DHT22;3413;47.680;9.166;2023-07-13T09:17:49;24.40;89.20
6752;DHT22;3413;47.680;9.166;2023-07-13T09:22:52;24.50;89.20
6752;DHT22;3413;47.680;9.166;2023-07-13T09:27:58;24.70;89.20
6752;DHT22;3413;47.680;9.166;2023-07-13T09:33:01;24.80;89.30
6752;DHT22;3413;47.680;9.166;2023-07-13T09:38:24;25.10;89.30
6752;DHT22;3413;47.680;9.166;2023-07-13T09:43:27;25.40;88.90
6752;DHT22;3413;47.680;9.166;2023-07-13T09:48:36;25.60;89.20
6752;DHT22;3413;47.680;9.166;2023-07-13T09:53:38;25.80;89.00
6752;DHT22;3413;47.680;9.166;2023-07-13T09:58:43;26.10;88.80
6752;DHT22;3413;47.680;9.166;2023-07-13T10:03:54;26.10;88.50
6752;DHT22;3413;47.680;9.166;2023-07-13T10:08:57;26.20;88.10
6752;DHT22;3413;47.680;9.166;2023-07-13T10:14:22;26.20;87.80
6752;DHT22;3413;47.680;9.166;2023-07-13T10:19:26;26.10;87.60
6752;DHT22;3413;47.680;9.166;2023-07-13T10:24:33;26.00;87.50
6752;DHT22;3413;47.680;9.166;2023-07-13T10:29:55;26.00;87.40
6752;DHT22;3413;47.680;9.166;2023-07-13T10:35:00;25.90;87.50
6752;DHT22;3413;47.680;9.166;2023-07-13T10:40:05;25.90;87.60
6752;DHT22;3413;47.680;9.166;2023-07-13T10:45:18;26.10;87.50
6752;DHT22;3413;47.680;9.166;2023-07-13T10:50:24;26.10;87.30
6752;DHT22;3413;47.680;9.166;2023-07-13T11:06:17;26.30;86.80
6752;DHT22;3413;47.680;9.166;2023-07-13T11:11:37;26.30;86.40
6752;DHT22;3413;47.680;9.166;2023-07-13T11:16:45;26.30;86.40
6752;DHT22;3413;47.680;9.166;2023-07-13T11:22:16;26.20;86.00
6752;DHT22;3413;47.680;9.166;2023-07-13T11:27:36;26.00;85.60
6752;DHT22;3413;47.680;9.166;2023-07-13T11:32:38;25.90;85.60
6752;DHT22;3413;47.680;9.166;2023-07-13T11:37:40;25.80;85.70
6752;DHT22;3413;47.680;9.166;2023-07-13T11:42:42;25.80;85.50
6752;DHT22;3413;47.680;9.166;2023-07-13T11:47:45;25.80;85.40
6752;DHT22;3413;47.680;9.166;2023-07-13T11:52:48;25.90;85.60
6752;DHT22;3413;47.680;9.166;2023-07-13T11:57:58;26.00;85.60
6752;DHT22;3413;47.680;9.166;2023-07-13T12:03:02;26.10;85.50
6752;DHT22;3413;47.680;9.166;2023-07-13T12:08:10;26.30;85.60
6752;DHT22;3413;47.680;9.166;2023-07-13T12:13:27;26.50;85.60
6752;DHT22;3413;47.680;9.166;2023-07-13T12:18:31;26.90;85.80
6752;DHT22;3413;47.680;9.166;2023-07-13T12:23:35;27.10;85.60
6752;DHT22;3413;47.680;9.166;2023-07-13T12:33:45;27.70;85.50
6752;DHT22;3413;47.680;9.166;2023-07-13T12:38:48;27.80;85.40
6752;DHT22;3413;47.680;9.166;2023-07-13T12:43:50;27.80;85.50
6752;DHT22;3413;47.680;9.166;2023-07-13T12:48:53;27.60;85.30
6752;DHT22;3413;47.680;9.166;2023-07-13T12:54:17;27.80;85.50
6752;DHT22;3413;47.680;9.166;2023-07-13T12:59:22;27.90;85.40
6752;DHT22;3413;47.680;9.166;2023-07-13T13:04:24;27.90;85.30
6752;DHT22;3413;47.680;9.166;2023-07-13T13:09:27;28.10;85.40
6752;DHT22;3413;47.680;9.166;2023-07-13T13:14:29;28.30;85.30
6752;DHT22;3413;47.680;9.166;2023-07-13T13:19:31;28.40;85.30
6752;DHT22;3413;47.680;9.166;2023-07-13T13:24:33;28.40;85.00
6752;DHT22;3413;47.680;9.166;2023-07-13T13:29:37;28.30;84.60
6752;DHT22;3413;47.680;9.166;2023-07-13T13:34:43;28.20;84.70
6752;DHT22;3413;47.680;9.166;2023-07-13T13:39:45;28.40;84.90
6752;DHT22;3413;47.680;9.166;2023-07-13T13:45:12;28.70;85.00
6752;DHT22;3413;47.680;9.166;2023-07-13T13:50:21;28.80;84.80
6752;DHT22;3413;47.680;9.166;2023-07-13T13:55:26;28.80;84.90
6752;DHT22;3413;47.680;9.166;2023-07-13T14:00:29;29.00;84.90
6752;DHT22;3413;47.680;9.166;2023-07-13T14:05:31;29.20;84.90
6752;DHT22;3413;47.680;9.166;2023-07-13T14:10:33;29.50;84.80
6752;DHT22;3413;47.680;9.166;2023-07-13T14:15:35;29.50;84.60
6752;DHT22;3413;47.680;9.166;2023-07-13T14:20:38;29.60;84.60
6752;DHT22;3413;47.680;9.166;2023-07-13T14:25:40;29.50;84.30
6752;DHT22;3413;47.680;9.166;2023-07-13T14:30:41;29.30;83.90
6752;DHT22;3413;47.680;9.166;2023-07-13T14:35:43;29.10;84.10
6752;DHT22;3413;47.680;9.166;2023-07-13T14:40:46;29.10;84.20
6752;DHT22;3413;47.680;9.166;2023-07-13T14:45:49;28.90;83.80
6752;DHT22;3413;47.680;9.166;2023-07-13T14:50:57;29.00;84.20
6752;DHT22;3413;47.680;9.166;2023-07-13T14:55:59;29.20;84.20
6752;DHT22;3413;47.680;9.166;2023-07-13T15:01:01;29.30;84.30
6752;DHT22;3413;47.680;9.166;2023-07-13T15:06:03;29.50;84.30
6752;DHT22;3413;47.680;9.166;2023-07-13T15:11:07;29.80;84.30
6752;DHT22;3413;47.680;9.166;2023-07-13T15:16:19;30.00;84.20
6752;DHT22;3413;47.680;9.166;2023-07-13T15:21:24;30.10;84.20
6752;DHT22;3413;47.680;9.166;2023-07-13T15:26:26;30.20;84.00
6752;DHT22;3413;47.680;9.166;2023-07-13T15:31:28;30.20;83.30
6752;DHT22;3413;47.680;9.166;2023-07-13T15:36:31;29.90;83.40
6752;DHT22;3413;47.680;9.166;2023-07-13T15:41:35;29.60;83.50
6752;DHT22;3413;47.680;9.166;2023-07-13T15:46:37;29.60;83.60
6752;DHT22;3413;47.680;9.166;2023-07-13T15:51:39;29.60;83.60
6752;DHT22;3413;47.680;9.166;2023-07-13T15:56:41;29.60;83.40
6752;DHT22;3413;47.680;9.166;2023-07-13T16:01:44;29.70;83.30
6752;DHT22;3413;47.680;9.166;2023-07-13T16:06:49;29.70;82.90
6752;DHT22;3413;47.680;9.166;2023-07-13T16:11:52;29.70;83.00
6752;DHT22;3413;47.680;9.166;2023-07-13T16:16:56;30.00;83.10
6752;DHT22;3413;47.680;9.166;2023-07-13T16:21:58;29.90;82.70
6752;DHT22;3413;47.680;9.166;2023-07-13T16:27:02;29.60;82.30
6752;DHT22;3413;47.680;9.166;2023-07-13T16:32:10;29.20;82.40
6752;DHT22;3413;47.680;9.166;2023-07-13T16:37:19;29.30;82.30
6752;DHT22;3413;47.680;9.166;2023-07-13T16:42:22;29.40;81.90
6752;DHT22;3413;47.680;9.166;2023-07-13T16:47:24;29.40;81.50
6752;DHT22;3413;47.680;9.166;2023-07-13T16:52:26;29.40;81.30
6752;DHT22;3413;47.680;9.166;2023-07-13T16:57:32;29.30;81.10
6752;DHT22;3413;47.680;9.166;2023-07-13T17:02:37;29.30;80.60
6752;DHT22;3413;47.680;9.166;2023-07-13T17:07:41;29.30;80.10
6752;DHT22;3413;47.680;9.166;2023-07-13T17:12:45;29.30;79.80
6752;DHT22;3413;47.680;9.166;2023-07-13T17:17:49;29.40;79.40
6752;DHT22;3413;47.680;9.166;2023-07-13T17:22:53;29.40;79.00
6752;DHT22;3413;47.680;9.166;2023-07-13T17:27:55;29.40;78.80
6752;DHT22;3413;47.680;9.166;2023-07-13T17:32:58;29.40;78.60
6752;DHT22;3413;47.680;9.166;2023-07-13T17:38:02;29.50;78.60
6752;DHT22;3413;47.680;9.166;2023-07-13T17:43:04;29.50;78.20
6752;DHT22;3413;47.680;9.166;2023-07-13T17:48:09;29.40;78.00
6752;DHT22;3413;47.680;9.166;2023-07-13T17:53:19;29.40;77.80
6752;DHT22;3413;47.680;9.166;2023-07-13T17:58:21;29.40;77.50
6752;DHT22;3413;47.680;9.166;2023-07-13T18:03:27;29.30;77.50
6752;DHT22;3413;47.680;9.166;2023-07-13T18:08:34;29.30;77.30
6752;DHT22;3413;47.680;9.166;2023-07-13T18:13:36;29.30;77.10
6752;DHT22;3413;47.680;9.166;2023-07-13T18:18:42;29.20;76.80
6752;DHT22;3413;47.680;9.166;2023-07-13T18:23:45;29.10;76.70
6752;DHT22;3413;47.680;9.166;2023-07-13T18:28:47;29.10;76.60
6752;DHT22;3413;47.680;9.166;2023-07-13T18:33:52;29.00;76.20
6752;DHT22;3413;47.680;9.166;2023-07-13T18:38:55;28.90;76.00
6752;DHT22;3413;47.680;9.166;2023-07-13T18:43:57;28.80;75.90
6752;DHT22;3413;47.680;9.166;2023-07-13T18:49:00;28.70;75.50
6752;DHT22;3413;47.680;9.166;2023-07-13T18:54:02;28.60;75.50
6752;DHT22;3413;47.680;9.166;2023-07-13T18:59:04;28.60;75.40
6752;DHT22;3413;47.680;9.166;2023-07-13T19:04:27;28.50;75.10
6752;DHT22;3413;47.680;9.166;2023-07-13T19:09:30;28.40;74.80
6752;DHT22;3413;47.680;9.166;2023-07-13T19:14:33;28.20;74.90
6752;DHT22;3413;47.680;9.166;2023-07-13T19:19:35;28.10;74.80
6752;DHT22;3413;47.680;9.166;2023-07-13T19:24:37;28.10;74.80
6752;DHT22;3413;47.680;9.166;2023-07-13T19:29:40;28.00;74.60
6752;DHT22;3413;47.680;9.166;2023-07-13T19:34:46;28.00;74.30
6752;DHT22;3413;47.680;9.166;2023-07-13T19:39:49;27.80;74.20
6752;DHT22;3413;47.680;9.166;2023-07-13T19:44:55;27.80;74.20
6752;DHT22;3413;47.680;9.166;2023-07-13T19:49:58;27.50;74.00
6752;DHT22;3413;47.680;9.166;2023-07-13T19:54:59;27.20;74.30
6752;DHT22;3413;47.680;9.166;2023-07-13T20:00:05;27.00;74.20
6752;DHT22;3413;47.680;9.166;2023-07-13T20:05:08;27.00;74.10
6752;DHT22;3413;47.680;9.166;2023-07-13T20:10:29;27.00;74.00
6752;DHT22;3413;47.680;9.166;2023-07-13T20:15:31;26.90;73.80
6752;DHT22;3413;47.680;9.166;2023-07-13T20:20:39;26.60;73.80
6752;DHT22;3413;47.680;9.166;2023-07-13T20:25:43;26.50;73.90
6752;DHT22;3413;47.680;9.166;2023-07-13T20:30:47;26.30;73.90
6752;DHT22;3413;47.680;9.166;2023-07-13T20:35:49;26.20;73.90
6752;DHT22;3413;47.680;9.166;2023-07-13T20:40:52;26.10;73.80
6752;DHT22;3413;47.680;9.166;2023-07-13T20:45:59;26.00;73.80
6752;DHT22;3413;47.680;9.166;2023-07-13T20:51:02;25.90;73.80
6752;DHT22;3413;47.680;9.166;2023-07-13T20:56:16;25.80;73.80
6752;DHT22;3413;47.680;9.166;2023-07-13T21:01:31;25.70;73.80
6752;DHT22;3413;47.680;9.166;2023-07-13T21:06:34;25.50;73.80
6752;DHT22;3413;47.680;9.166;2023-07-13T21:11:37;25.40;73.70
6752;DHT22;3413;47.680;9.166;2023-07-13T21:16:41;25.30;73.80
6752;DHT22;3413;47.680;9.166;2023-07-13T21:21:43;25.20;73.60
6752;DHT22;3413;47.680;9.166;2023-07-13T21:26:45;25.20;73.60
6752;DHT22;3413;47.680;9.166;2023-07-13T21:31:46;24.90;73.70
6752;DHT22;3413;47.680;9.166;2023-07-13T21:36:48;24.70;73.60
6752;DHT22;3413;47.680;9.166;2023-07-13T21:41:52;24.50;73.70
6752;DHT22;3413;47.680;9.166;2023-07-13T21:46:54;24.50;73.70
6752;DHT22;3413;47.680;9.166;2023-07-13T21:51:58;24.40;73.60
6752;DHT22;3413;47.680;9.166;2023-07-13T21:56:59;24.20;73.50
6752;DHT22;3413;47.680;9.166;2023-07-13T22:02:02;24.10;73.60
6752;DHT22;3413;47.680;9.166;2023-07-13T22:07:04;24.00;73.50
6752;DHT22;3413;47.680;9.166;2023-07-13T22:12:08;23.90;73.50
6752;DHT22;3413;47.680;9.166;2023-07-13T22:17:12;23.70;74.10
6752;DHT22;3413;47.680;9.166;2023-07-13T22:22:14;23.60;73.60
6752;DHT22;3413;47.680;9.166;2023-07-13T22:27:16;23.50;73.50
6752;DHT22;3413;47.680;9.166;2023-07-13T22:32:19;23.40;73.50
6752;DHT22;3413;47.680;9.166;2023-07-13T22:37:22;23.30;73.50
6752;DHT22;3413;47.680;9.166;2023-07-13T22:42:24;23.20;73.40
6752;DHT22;3413;47.680;9.166;2023-07-13T22:47:26;23.10;73.40
6752;DHT22;3413;47.680;9.166;2023-07-13T22:52:28;23.10;73.40
6752;DHT22;3413;47.680;9.166;2023-07-13T22:57:30;23.00;73.40
6752;DHT22;3413;47.680;9.166;2023-07-13T23:02:32;23.00;73.50
6752;DHT22;3413;47.680;9.166;2023-07-13T23:07:33;22.80;73.40
6752;DHT22;3413;47.680;9.166;2023-07-13T23:12:35;22.80;73.60
6752;DHT22;3413;47.680;9.166;2023-07-13T23:17:39;22.70;73.50
6752;DHT22;3413;47.680;9.166;2023-07-13T23:22:41;22.60;73.60
6752;DHT22;3413;47.680;9.166;2023-07-13T23:27:43;22.50;73.50
6752;DHT22;3413;47.680;9.166;2023-07-13T23:32:47;22.50;73.50
6752;DHT22;3413;47.680;9.166;2023-07-13T23:37:49;22.50;73.60
6752;DHT22;3413;47.680;9.166;2023-07-13T23:42:51;22.40;73.60
6752;DHT22;3413;47.680;9.166;2023-07-13T23:47:55;22.40;73.70
6752;DHT22;3413;47.680;9.166;2023-07-13T23:52:58;22.30;73.70
6752;DHT22;3413;47.680;9.166;2023-07-13T23:58:02;22.20;73.80
